Terminal Aerodrome Forecast
Issued by NWS Sioux Falls, SD

Home | Current Version | Previous Version | Graphics & Text | Print | Product List | Glossary On
Versions: 1 2 3 4 5 6 7 8 9 10 11 12 13 14 15 16 17 18 19 20 21
000
FTUS43 KFSD 252022 AAA
TAFFSD
TAF AMD
KFSD 252022Z 2520/2618 32022G32KT P6SM BKN035
     FM252300 32018G25KT P6SM BKN035
     FM260200 32010KT P6SM SCT035
     FM261100 34006KT P6SM SKC
     FM261600 34010KT P6SM SCT100 BKN200=

USA.gov is the U.S. government's official web portal to all federal, state and local government web resources and services.